Time;durP1;ratioP1;P1;durP2;ratioP2;P2;SDS_P1;SDS_P2;PMS_P1;PMS_P2;Temp;Humidity;BMP_temperature;BMP_pressure;BME280_temperature;BME280_humidity;BME280_pressure;Samples;Min_cycle;Max_cycle;Signal;HPM_P1;HPM_P2
2021/05/22 00:01:08;;;;;;;;;;;;;;;23.12;54.58;101491.78;5043372;28;1716;-72
2021/05/22 00:03:34;;;;;;;;;;;;;;;23.13;54.44;101489.84;5046441;28;1859;-72
2021/05/22 00:05:59;;;;;;;;;;;;;;;23.12;54.39;101493.72;5042729;28;1762;-72
2021/05/22 00:08:24;;;;;;;;;;;;;;;23.11;54.70;101503.06;5044527;28;1949;-72
2021/05/22 00:10:49;;;;;;;;;;;;;;;23.10;54.61;101504.16;5032533;28;1877;-71
2021/05/22 00:13:15;;;;;;;;;;;;;;;23.12;54.64;101507.47;5044191;28;1873;-71
2021/05/22 00:15:41;;;;;;;;;;;;;;;23.12;54.77;101511.03;5049224;28;1891;-73
2021/05/22 00:18:06;;;;;;;;;;;;;;;23.13;54.69;101501.66;5036467;28;1909;-73
2021/05/22 00:20:31;;;;;;;;;;;;;;;23.13;54.32;101514.59;5034525;28;2085;-73
2021/05/22 00:22:57;;;;;;;;;;;;;;;23.13;54.71;101514.59;5036250;28;2111;-74
2021/05/22 00:25:22;;;;;;;;;;;;;;;23.11;54.74;101517.63;5037808;28;1998;-74
2021/05/22 00:27:47;;;;;;;;;;;;;;;23.11;54.48;101517.63;5048287;28;1651;-73
2021/05/22 00:30:13;;;;;;;;;;;;;;;23.11;54.51;101514.88;5045137;28;1831;-74
2021/05/22 00:32:39;;;;;;;;;;;;;;;23.12;54.46;101523.97;5041416;28;1609;-74
2021/05/22 00:35:04;;;;;;;;;;;;;;;23.11;54.42;101520.38;5050471;28;1706;-73
2021/05/22 00:37:30;;;;;;;;;;;;;;;23.10;54.49;101520.66;5048934;28;1961;-74
2021/05/22 00:39:55;;;;;;;;;;;;;;;23.12;54.51;101521.22;5039374;28;1930;-74
2021/05/22 00:42:21;;;;;;;;;;;;;;;23.12;54.54;101515.72;5037939;28;1634;-74
2021/05/22 00:45:12;;;;;;;;;;;;;;;23.11;54.75;101514.06;5031231;28;897;-74
2021/05/22 00:47:40;;;;;;;;;;;;;;;23.09;54.65;101514.34;5030808;28;1195;-74
2021/05/22 00:50:07;;;;;;;;;;;;;;;23.10;54.49;101509.66;5049464;28;1685;-74
2021/05/22 00:52:32;;;;;;;;;;;;;;;23.11;54.65;101508.56;5045723;28;1414;-72
2021/05/22 00:54:57;;;;;;;;;;;;;;;23.11;54.77;101495.63;5050317;28;1783;-72
2021/05/22 00:57:23;;;;;;;;;;;;;;;23.12;54.83;101515.72;5045227;28;1848;-72
2021/05/22 00:59:49;;;;;;;;;;;;;;;23.12;54.76;101508.28;5046511;28;1929;-72
2021/05/22 01:02:20;;;;;;;;;;;;;;;23.12;55.01;101515.72;5048407;28;2091;-72
2021/05/22 01:04:45;;;;;;;;;;;;;;;23.11;55.08;101512.13;5050572;28;1843;-72
2021/05/22 01:07:10;;;;;;;;;;;;;;;23.13;54.70;101511.84;5041432;28;2009;-73
2021/05/22 01:09:36;;;;;;;;;;;;;;;23.12;54.85;101521.22;5050035;28;1965;-72
2021/05/22 01:12:03;;;;;;;;;;;;;;;23.12;55.05;101527.50;5050181;28;1657;-71
2021/05/22 01:14:33;;;;;;;;;;;;;;;23.12;55.07;101524.78;5047071;28;1602;-71
2021/05/22 01:16:59;;;;;;;;;;;;;;;23.11;54.95;101514.88;5034939;28;1875;-71
2021/05/22 01:19:24;;;;;;;;;;;;;;;23.12;55.09;101515.72;5050209;28;2263;-71
2021/05/22 01:21:50;;;;;;;;;;;;;;;23.12;54.66;101510.22;5049865;28;2033;-71
2021/05/22 01:24:17;;;;;;;;;;;;;;;23.12;55.08;101515.72;5040205;28;1754;-72
2021/05/22 01:26:43;;;;;;;;;;;;;;;23.12;54.64;101513.78;5047915;28;1671;-72
2021/05/22 01:29:08;;;;;;;;;;;;;;;23.11;54.71;101514.88;5048702;28;1775;-72
2021/05/22 01:31:35;;;;;;;;;;;;;;;23.11;54.69;101505.81;5050098;28;1829;-71
2021/05/22 01:34:00;;;;;;;;;;;;;;;23.12;54.59;101511.03;5049949;28;1853;-70
2021/05/22 01:36:26;;;;;;;;;;;;;;;23.13;54.96;101511.84;5043713;28;1849;-72
2021/05/22 01:38:51;;;;;;;;;;;;;;;23.09;54.58;101508.84;5036953;28;1969;-74
2021/05/22 01:41:16;;;;;;;;;;;;;;;23.11;54.64;101517.63;5073301;28;1991;-74
2021/05/22 01:43:45;;;;;;;;;;;;;;;23.13;54.30;101525.56;5049824;28;1662;-75
2021/05/22 01:46:10;;;;;;;;;;;;;;;23.12;54.65;101524.78;5050194;28;1713;-73
2021/05/22 01:48:36;;;;;;;;;;;;;;;23.12;54.81;101521.22;5050304;28;1168;-72
2021/05/22 01:51:11;;;;;;;;;;;;;;;23.12;54.92;101527.50;5050520;28;1728;-72
2021/05/22 01:53:39;;;;;;;;;;;;;;;23.12;54.66;101537.69;5049958;28;842;-72
2021/05/22 01:56:05;;;;;;;;;;;;;;;23.12;54.58;101534.94;5050441;28;803;-72
2021/05/22 01:58:30;;;;;;;;;;;;;;;23.12;54.59;101534.94;5048016;28;2122;-72
2021/05/22 02:00:56;;;;;;;;;;;;;;;23.11;54.66;101533.28;5043541;28;2229;-73
2021/05/22 02:03:33;;;;;;;;;;;;;;;23.11;54.85;101538.78;5049423;28;1835;-73
2021/05/22 02:05:59;;;;;;;;;;;;;;;23.12;54.77;101537.69;5049980;28;852;-74
2021/05/22 02:08:24;;;;;;;;;;;;;;;23.11;54.65;101538.78;5049589;28;971;-74
2021/05/22 02:10:50;;;;;;;;;;;;;;;23.12;54.77;101534.94;5042678;28;818;-75
2021/05/22 02:13:16;;;;;;;;;;;;;;;23.11;54.62;101545.09;5030728;28;891;-74
2021/05/22 02:15:45;;;;;;;;;;;;;;;23.10;54.46;101548.97;5042143;28;2127;-74
2021/05/22 02:18:11;;;;;;;;;;;;;;;23.11;54.72;101563.53;5045655;28;1780;-74
2021/05/22 02:20:37;;;;;;;;;;;;;;;23.12;54.57;101551.44;5043618;28;1940;-73
2021/05/22 02:23:03;;;;;;;;;;;;;;;23.11;54.79;101552.53;5044617;28;2286;-73
2021/05/22 02:25:28;;;;;;;;;;;;;;;23.10;54.73;101554.47;5068763;28;1489;-73
2021/05/22 02:27:57;;;;;;;;;;;;;;;23.09;54.51;101561.06;5053546;28;2282;-72
2021/05/22 02:30:23;;;;;;;;;;;;;;;23.09;54.69;101561.06;5049258;28;903;-72
2021/05/22 02:32:49;;;;;;;;;;;;;;;23.08;54.68;101559.44;5033329;28;1869;-72
2021/05/22 02:35:16;;;;;;;;;;;;;;;23.09;54.65;101552.00;5047528;28;823;-73
2021/05/22 02:37:41;;;;;;;;;;;;;;;23.09;54.60;101563.00;5041599;28;2042;-72
2021/05/22 02:40:12;;;;;;;;;;;;;;;23.10;54.53;101567.38;5045953;28;1980;-72
2021/05/22 02:42:38;;;;;;;;;;;;;;;23.10;54.30;101570.97;5048810;28;1815;-72
2021/05/22 02:45:04;;;;;;;;;;;;;;;23.10;54.38;101567.38;5031971;28;810;-72
2021/05/22 02:47:30;;;;;;;;;;;;;;;23.11;54.32;101569.84;5032498;28;908;-71
2021/05/22 02:50:00;;;;;;;;;;;;;;;23.10;54.46;101576.47;5033324;28;793;-71
2021/05/22 02:52:26;;;;;;;;;;;;;;;23.09;54.54;101574.81;5032077;28;895;-71
2021/05/22 02:54:53;;;;;;;;;;;;;;;23.10;54.35;101575.63;5038470;28;1967;-71
2021/05/22 02:57:18;;;;;;;;;;;;;;;23.09;54.05;101571.25;5043995;28;881;-71
2021/05/22 02:59:45;;;;;;;;;;;;;;;23.09;54.54;101579.50;5031781;28;1957;-72
2021/05/22 03:02:11;;;;;;;;;;;;;;;23.10;54.36;101586.59;5031870;28;866;-71
2021/05/22 03:04:37;;;;;;;;;;;;;;;23.08;54.29;101586.91;5031658;28;1130;-71
2021/05/22 03:07:02;;;;;;;;;;;;;;;23.08;54.13;101589.66;5031419;28;921;-71
2021/05/22 03:09:28;;;;;;;;;;;;;;;23.07;54.10;101579.78;5033097;28;897;-71
2021/05/22 03:11:53;;;;;;;;;;;;;;;23.08;54.30;101586.91;5032885;28;1232;-71
2021/05/22 03:14:19;;;;;;;;;;;;;;;23.08;54.34;101588.81;5032771;28;908;-71
2021/05/22 03:16:44;;;;;;;;;;;;;;;23.08;53.88;101589.66;5032794;28;1127;-71
2021/05/22 03:19:09;;;;;;;;;;;;;;;23.07;53.92;101596.25;5033288;28;2026;-71
2021/05/22 03:21:35;;;;;;;;;;;;;;;23.08;53.82;101591.56;5041502;28;1056;-71
2021/05/22 03:24:00;;;;;;;;;;;;;;;23.08;54.01;101594.31;5050580;28;1297;-72
2021/05/22 03:26:27;;;;;;;;;;;;;;;23.07;53.99;101592.69;5052565;28;929;-71
2021/05/22 03:28:52;;;;;;;;;;;;;;;23.06;54.30;101593.78;5052648;28;938;-71
2021/05/22 03:31:17;;;;;;;;;;;;;;;23.06;54.04;101593.78;5052258;28;949;-71
2021/05/22 03:33:43;;;;;;;;;;;;;;;23.08;54.05;101597.06;5045116;28;2080;-72
2021/05/22 03:36:08;;;;;;;;;;;;;;;23.08;54.46;101595.16;5048047;28;925;-71
2021/05/22 03:38:33;;;;;;;;;;;;;;;23.09;54.60;101602.28;5047995;28;877;-71
2021/05/22 03:40:59;;;;;;;;;;;;;;;23.10;54.63;101603.94;5064309;28;1910;-72
2021/05/22 03:43:24;;;;;;;;;;;;;;;23.09;54.30;101605.03;5038633;28;1312;-74
2021/05/22 03:45:49;;;;;;;;;;;;;;;23.09;54.48;101604.22;5043478;28;1927;-75
2021/05/22 03:48:15;;;;;;;;;;;;;;;23.09;54.32;101602.28;5043200;28;1909;-73
2021/05/22 03:50:40;;;;;;;;;;;;;;;23.10;54.48;101606.69;5038514;28;859;-78
2021/05/22 03:53:07;;;;;;;;;;;;;;;23.13;54.19;101613.50;5035178;28;1711;-73
2021/05/22 03:55:32;;;;;;;;;;;;;;;23.15;54.14;101618.72;5042600;28;1858;-76
2021/05/22 03:57:58;;;;;;;;;;;;;;;23.12;54.20;101612.72;5074913;28;1319;-73
2021/05/22 04:00:23;;;;;;;;;;;;;;;23.15;54.02;101616.78;5045434;28;1944;-72
2021/05/22 04:02:49;;;;;;;;;;;;;;;23.14;53.74;101623.41;5051577;28;892;-73
2021/05/22 04:05:14;;;;;;;;;;;;;;;23.13;53.84;101619.81;5036661;28;1706;-67
